sensor_id;sensor_type;location;lat;lon;timestamp;temperature;humidity
7530;DHT22;3806;52.270;10.544;2022-08-25T00:01:23;22.10;90.20
7530;DHT22;3806;52.270;10.544;2022-08-25T00:03:49;22.10;90.40
7530;DHT22;3806;52.270;10.544;2022-08-25T00:06:15;22.10;90.60
7530;DHT22;3806;52.270;10.544;2022-08-25T00:08:42;22.10;90.70
7530;DHT22;3806;52.270;10.544;2022-08-25T00:11:14;22.10;90.80
7530;DHT22;3806;52.270;10.544;2022-08-25T00:13:43;22.10;90.80
7530;DHT22;3806;52.270;10.544;2022-08-25T00:16:14;22.10;90.90
7530;DHT22;3806;52.270;10.544;2022-08-25T00:18:42;22.10;90.90
7530;DHT22;3806;52.270;10.544;2022-08-25T00:21:11;22.10;91.00
7530;DHT22;3806;52.270;10.544;2022-08-25T00:23:36;22.10;90.90
7530;DHT22;3806;52.270;10.544;2022-08-25T00:26:03;22.00;91.10
7530;DHT22;3806;52.270;10.544;2022-08-25T00:28:28;21.90;91.30
7530;DHT22;3806;52.270;10.544;2022-08-25T00:30:56;21.90;91.60
7530;DHT22;3806;52.270;10.544;2022-08-25T00:33:23;21.80;91.70
7530;DHT22;3806;52.270;10.544;2022-08-25T00:35:51;21.80;91.90
7530;DHT22;3806;52.270;10.544;2022-08-25T00:38:17;21.70;92.10
7530;DHT22;3806;52.270;10.544;2022-08-25T00:40:44;21.70;92.20
7530;DHT22;3806;52.270;10.544;2022-08-25T00:43:10;21.70;92.40
7530;DHT22;3806;52.270;10.544;2022-08-25T00:45:36;21.70;92.50
7530;DHT22;3806;52.270;10.544;2022-08-25T00:48:03;21.60;92.60
7530;DHT22;3806;52.270;10.544;2022-08-25T00:50:30;21.70;92.70
7530;DHT22;3806;52.270;10.544;2022-08-25T00:53:00;21.70;92.80
7530;DHT22;3806;52.270;10.544;2022-08-25T00:55:30;21.60;92.90
7530;DHT22;3806;52.270;10.544;2022-08-25T00:58:04;21.60;93.00
7530;DHT22;3806;52.270;10.544;2022-08-25T01:00:38;21.60;93.20
7530;DHT22;3806;52.270;10.544;2022-08-25T01:03:04;21.50;93.30
7530;DHT22;3806;52.270;10.544;2022-08-25T01:05:31;21.50;93.40
7530;DHT22;3806;52.270;10.544;2022-08-25T01:07:57;21.40;93.60
7530;DHT22;3806;52.270;10.544;2022-08-25T01:10:25;21.40;93.80
7530;DHT22;3806;52.270;10.544;2022-08-25T01:12:52;21.30;94.20
7530;DHT22;3806;52.270;10.544;2022-08-25T01:15:19;21.20;94.70
7530;DHT22;3806;52.270;10.544;2022-08-25T01:17:54;21.20;94.70
7530;DHT22;3806;52.270;10.544;2022-08-25T01:20:24;21.20;94.90
7530;DHT22;3806;52.270;10.544;2022-08-25T01:22:51;21.20;95.10
7530;DHT22;3806;52.270;10.544;2022-08-25T01:25:47;21.20;95.30
7530;DHT22;3806;52.270;10.544;2022-08-25T01:28:16;21.20;95.50
7530;DHT22;3806;52.270;10.544;2022-08-25T01:30:42;21.20;95.70
7530;DHT22;3806;52.270;10.544;2022-08-25T01:33:10;21.20;96.00
7530;DHT22;3806;52.270;10.544;2022-08-25T01:35:37;21.20;95.90
7530;DHT22;3806;52.270;10.544;2022-08-25T01:38:06;21.20;96.00
7530;DHT22;3806;52.270;10.544;2022-08-25T01:40:33;21.20;96.20
7530;DHT22;3806;52.270;10.544;2022-08-25T01:45:43;21.20;96.50
7530;DHT22;3806;52.270;10.544;2022-08-25T01:48:10;21.20;96.70
7530;DHT22;3806;52.270;10.544;2022-08-25T01:50:38;21.20;96.90
7530;DHT22;3806;52.270;10.544;2022-08-25T01:55:33;21.10;97.30
7530;DHT22;3806;52.270;10.544;2022-08-25T01:58:24;21.10;97.40
7530;DHT22;3806;52.270;10.544;2022-08-25T02:00:52;21.10;97.60
7530;DHT22;3806;52.270;10.544;2022-08-25T02:03:20;21.10;97.80
7530;DHT22;3806;52.270;10.544;2022-08-25T02:05:46;21.10;98.00
7530;DHT22;3806;52.270;10.544;2022-08-25T02:08:12;21.10;98.30
7530;DHT22;3806;52.270;10.544;2022-08-25T02:10:39;21.00;98.50
7530;DHT22;3806;52.270;10.544;2022-08-25T02:13:06;21.00;98.70
7530;DHT22;3806;52.270;10.544;2022-08-25T02:15:32;21.00;98.90
7530;DHT22;3806;52.270;10.544;2022-08-25T02:17:58;20.90;99.00
7530;DHT22;3806;52.270;10.544;2022-08-25T02:20:24;20.90;99.20
7530;DHT22;3806;52.270;10.544;2022-08-25T02:22:51;20.90;99.40
7530;DHT22;3806;52.270;10.544;2022-08-25T02:25:18;20.90;99.50
7530;DHT22;3806;52.270;10.544;2022-08-25T02:27:44;20.90;99.60
7530;DHT22;3806;52.270;10.544;2022-08-25T02:30:12;20.90;99.70
7530;DHT22;3806;52.270;10.544;2022-08-25T02:32:38;20.90;99.80
7530;DHT22;3806;52.270;10.544;2022-08-25T02:35:05;20.90;99.90
7530;DHT22;3806;52.270;10.544;2022-08-25T02:37:31;20.90;99.90
7530;DHT22;3806;52.270;10.544;2022-08-25T02:39:57;20.90;99.90
7530;DHT22;3806;52.270;10.544;2022-08-25T02:42:23;20.80;99.90
7530;DHT22;3806;52.270;10.544;2022-08-25T02:44:49;20.80;99.90
7530;DHT22;3806;52.270;10.544;2022-08-25T02:47:16;20.80;99.90
7530;DHT22;3806;52.270;10.544;2022-08-25T02:49:41;20.80;99.90
7530;DHT22;3806;52.270;10.544;2022-08-25T02:52:07;20.80;99.90
7530;DHT22;3806;52.270;10.544;2022-08-25T02:54:34;20.80;99.90
7530;DHT22;3806;52.270;10.544;2022-08-25T02:57:00;20.80;99.90
7530;DHT22;3806;52.270;10.544;2022-08-25T02:59:25;20.80;99.90
7530;DHT22;3806;52.270;10.544;2022-08-25T03:01:51;20.80;99.90
7530;DHT22;3806;52.270;10.544;2022-08-25T03:04:17;20.80;99.90
7530;DHT22;3806;52.270;10.544;2022-08-25T03:06:43;20.80;99.90
7530;DHT22;3806;52.270;10.544;2022-08-25T03:09:09;20.90;99.90
7530;DHT22;3806;52.270;10.544;2022-08-25T03:11:34;20.90;99.90
7530;DHT22;3806;52.270;10.544;2022-08-25T03:14:04;20.90;99.90
7530;DHT22;3806;52.270;10.544;2022-08-25T03:16:29;20.90;99.90
7530;DHT22;3806;52.270;10.544;2022-08-25T03:18:56;20.90;99.90
7530;DHT22;3806;52.270;10.544;2022-08-25T03:21:22;20.90;99.90
7530;DHT22;3806;52.270;10.544;2022-08-25T03:23:47;20.90;99.90
7530;DHT22;3806;52.270;10.544;2022-08-25T03:26:13;20.90;99.90
7530;DHT22;3806;52.270;10.544;2022-08-25T03:28:57;20.90;99.90
7530;DHT22;3806;52.270;10.544;2022-08-25T03:31:24;20.90;99.90
7530;DHT22;3806;52.270;10.544;2022-08-25T03:33:53;20.80;99.90
7530;DHT22;3806;52.270;10.544;2022-08-25T03:36:19;20.70;99.90
7530;DHT22;3806;52.270;10.544;2022-08-25T03:38:44;20.60;99.90
7530;DHT22;3806;52.270;10.544;2022-08-25T03:41:16;20.50;99.90
7530;DHT22;3806;52.270;10.544;2022-08-25T03:43:42;20.40;99.90
7530;DHT22;3806;52.270;10.544;2022-08-25T03:46:23;20.40;99.90
7530;DHT22;3806;52.270;10.544;2022-08-25T03:48:51;20.30;99.90
7530;DHT22;3806;52.270;10.544;2022-08-25T03:51:24;20.30;99.90
7530;DHT22;3806;52.270;10.544;2022-08-25T03:53:52;20.30;99.90
7530;DHT22;3806;52.270;10.544;2022-08-25T03:56:18;20.30;99.90
7530;DHT22;3806;52.270;10.544;2022-08-25T03:58:45;20.30;99.90
7530;DHT22;3806;52.270;10.544;2022-08-25T04:01:11;20.30;99.90
7530;DHT22;3806;52.270;10.544;2022-08-25T04:03:36;20.30;99.90
7530;DHT22;3806;52.270;10.544;2022-08-25T04:06:04;20.30;99.90
7530;DHT22;3806;52.270;10.544;2022-08-25T04:08:30;20.30;99.90
7530;DHT22;3806;52.270;10.544;2022-08-25T04:10:55;20.20;99.90
7530;DHT22;3806;52.270;10.544;2022-08-25T04:13:21;20.20;99.90
7530;DHT22;3806;52.270;10.544;2022-08-25T04:15:47;20.20;99.90
7530;DHT22;3806;52.270;10.544;2022-08-25T04:18:13;20.20;99.90
7530;DHT22;3806;52.270;10.544;2022-08-25T04:20:40;20.20;99.90
7530;DHT22;3806;52.270;10.544;2022-08-25T04:23:07;20.20;99.90
7530;DHT22;3806;52.270;10.544;2022-08-25T04:25:33;20.20;99.90
7530;DHT22;3806;52.270;10.544;2022-08-25T04:27:59;20.10;99.90
7530;DHT22;3806;52.270;10.544;2022-08-25T04:30:25;20.10;99.90
7530;DHT22;3806;52.270;10.544;2022-08-25T04:32:50;20.10;99.90
7530;DHT22;3806;52.270;10.544;2022-08-25T04:35:16;20.10;99.90
7530;DHT22;3806;52.270;10.544;2022-08-25T04:37:41;20.00;99.90
7530;DHT22;3806;52.270;10.544;2022-08-25T04:40:08;20.00;99.90
7530;DHT22;3806;52.270;10.544;2022-08-25T04:42:34;20.00;99.90
7530;DHT22;3806;52.270;10.544;2022-08-25T04:45:00;20.00;99.90
7530;DHT22;3806;52.270;10.544;2022-08-25T04:47:28;20.00;99.90
7530;DHT22;3806;52.270;10.544;2022-08-25T04:49:53;20.00;99.90
7530;DHT22;3806;52.270;10.544;2022-08-25T04:52:19;20.10;99.90
7530;DHT22;3806;52.270;10.544;2022-08-25T04:54:45;20.10;99.90
7530;DHT22;3806;52.270;10.544;2022-08-25T04:57:11;20.10;99.90
7530;DHT22;3806;52.270;10.544;2022-08-25T04:59:37;20.20;99.90
7530;DHT22;3806;52.270;10.544;2022-08-25T05:02:03;20.20;99.90
7530;DHT22;3806;52.270;10.544;2022-08-25T05:04:32;20.30;99.90
7530;DHT22;3806;52.270;10.544;2022-08-25T05:06:59;20.30;99.90
7530;DHT22;3806;52.270;10.544;2022-08-25T05:09:25;20.30;99.90
7530;DHT22;3806;52.270;10.544;2022-08-25T05:11:52;20.50;99.90
7530;DHT22;3806;52.270;10.544;2022-08-25T05:14:18;20.50;99.90
7530;DHT22;3806;52.270;10.544;2022-08-25T05:16:47;20.50;99.90
7530;DHT22;3806;52.270;10.544;2022-08-25T05:19:13;20.60;99.90
7530;DHT22;3806;52.270;10.544;2022-08-25T05:21:39;20.70;99.90
7530;DHT22;3806;52.270;10.544;2022-08-25T05:24:05;20.80;99.90
7530;DHT22;3806;52.270;10.544;2022-08-25T05:26:33;20.90;99.90
7530;DHT22;3806;52.270;10.544;2022-08-25T05:29:00;21.00;99.90
7530;DHT22;3806;52.270;10.544;2022-08-25T05:31:28;21.30;99.90
7530;DHT22;3806;52.270;10.544;2022-08-25T05:33:54;21.50;99.90
7530;DHT22;3806;52.270;10.544;2022-08-25T05:36:21;21.70;99.90
7530;DHT22;3806;52.270;10.544;2022-08-25T05:38:47;21.80;99.90
7530;DHT22;3806;52.270;10.544;2022-08-25T05:41:25;21.90;99.90
7530;DHT22;3806;52.270;10.544;2022-08-25T05:43:51;21.90;99.90
7530;DHT22;3806;52.270;10.544;2022-08-25T05:46:18;22.00;99.90
7530;DHT22;3806;52.270;10.544;2022-08-25T05:48:44;22.10;99.90
7530;DHT22;3806;52.270;10.544;2022-08-25T05:51:11;22.30;99.90
7530;DHT22;3806;52.270;10.544;2022-08-25T05:53:39;22.80;99.90
7530;DHT22;3806;52.270;10.544;2022-08-25T05:56:06;23.30;99.90
7530;DHT22;3806;52.270;10.544;2022-08-25T05:58:32;23.60;99.90
7530;DHT22;3806;52.270;10.544;2022-08-25T06:00:59;23.80;99.50
7530;DHT22;3806;52.270;10.544;2022-08-25T06:03:48;24.10;98.90
7530;DHT22;3806;52.270;10.544;2022-08-25T06:06:14;24.40;98.70
7530;DHT22;3806;52.270;10.544;2022-08-25T06:08:42;25.30;97.90
7530;DHT22;3806;52.270;10.544;2022-08-25T06:11:08;26.30;95.90
7530;DHT22;3806;52.270;10.544;2022-08-25T06:13:34;27.50;93.20
7530;DHT22;3806;52.270;10.544;2022-08-25T06:15:59;28.70;89.90
7530;DHT22;3806;52.270;10.544;2022-08-25T06:18:25;29.80;83.60
7530;DHT22;3806;52.270;10.544;2022-08-25T06:20:51;30.90;77.00
7530;DHT22;3806;52.270;10.544;2022-08-25T06:23:16;31.90;71.50
7530;DHT22;3806;52.270;10.544;2022-08-25T06:25:52;32.70;66.10
7530;DHT22;3806;52.270;10.544;2022-08-25T06:28:19;33.60;59.10
7530;DHT22;3806;52.270;10.544;2022-08-25T06:30:45;34.20;56.20
7530;DHT22;3806;52.270;10.544;2022-08-25T06:33:12;34.60;54.50
7530;DHT22;3806;52.270;10.544;2022-08-25T06:35:41;35.00;52.60
7530;DHT22;3806;52.270;10.544;2022-08-25T06:38:06;35.20;51.20
7530;DHT22;3806;52.270;10.544;2022-08-25T06:40:32;35.10;50.50
7530;DHT22;3806;52.270;10.544;2022-08-25T06:42:58;34.90;50.50
7530;DHT22;3806;52.270;10.544;2022-08-25T06:45:23;34.50;50.90
7530;DHT22;3806;52.270;10.544;2022-08-25T06:47:49;34.30;51.30
7530;DHT22;3806;52.270;10.544;2022-08-25T06:50:17;33.90;52.20
7530;DHT22;3806;52.270;10.544;2022-08-25T06:52:42;33.50;52.40
7530;DHT22;3806;52.270;10.544;2022-08-25T06:55:08;33.20;53.10
7530;DHT22;3806;52.270;10.544;2022-08-25T06:57:34;32.90;53.90
7530;DHT22;3806;52.270;10.544;2022-08-25T07:00:02;32.70;54.70
7530;DHT22;3806;52.270;10.544;2022-08-25T07:02:28;32.50;55.20
7530;DHT22;3806;52.270;10.544;2022-08-25T07:04:53;32.10;56.00
7530;DHT22;3806;52.270;10.544;2022-08-25T07:07:19;31.90;57.00
7530;DHT22;3806;52.270;10.544;2022-08-25T07:09:45;31.80;57.70
7530;DHT22;3806;52.270;10.544;2022-08-25T07:12:11;31.60;58.20
7530;DHT22;3806;52.270;10.544;2022-08-25T07:14:36;31.50;58.70
7530;DHT22;3806;52.270;10.544;2022-08-25T07:17:02;31.40;59.10
7530;DHT22;3806;52.270;10.544;2022-08-25T07:19:28;31.50;59.70
7530;DHT22;3806;52.270;10.544;2022-08-25T07:21:54;31.50;59.80
7530;DHT22;3806;52.270;10.544;2022-08-25T07:24:20;31.60;59.50
7530;DHT22;3806;52.270;10.544;2022-08-25T07:26:47;31.60;59.60
7530;DHT22;3806;52.270;10.544;2022-08-25T07:29:20;31.80;60.10
7530;DHT22;3806;52.270;10.544;2022-08-25T07:31:46;31.90;59.40
7530;DHT22;3806;52.270;10.544;2022-08-25T07:34:11;32.00;58.80
7530;DHT22;3806;52.270;10.544;2022-08-25T07:36:56;31.90;59.50
7530;DHT22;3806;52.270;10.544;2022-08-25T07:39:25;32.10;59.00
7530;DHT22;3806;52.270;10.544;2022-08-25T07:41:52;32.20;58.90
7530;DHT22;3806;52.270;10.544;2022-08-25T07:44:18;32.40;58.40
7530;DHT22;3806;52.270;10.544;2022-08-25T07:46:44;32.40;58.20
7530;DHT22;3806;52.270;10.544;2022-08-25T07:49:10;32.40;58.10
7530;DHT22;3806;52.270;10.544;2022-08-25T07:51:35;32.60;58.30
7530;DHT22;3806;52.270;10.544;2022-08-25T07:54:01;32.80;58.30
7530;DHT22;3806;52.270;10.544;2022-08-25T07:56:26;33.00;57.40
7530;DHT22;3806;52.270;10.544;2022-08-25T07:58:52;33.00;57.00
7530;DHT22;3806;52.270;10.544;2022-08-25T08:01:21;33.00;57.10
7530;DHT22;3806;52.270;10.544;2022-08-25T08:03:48;33.10;57.00
7530;DHT22;3806;52.270;10.544;2022-08-25T08:06:16;33.20;56.80
7530;DHT22;3806;52.270;10.544;2022-08-25T08:08:44;33.30;56.40
7530;DHT22;3806;52.270;10.544;2022-08-25T08:13:48;33.60;55.80
7530;DHT22;3806;52.270;10.544;2022-08-25T08:16:15;33.70;55.20
7530;DHT22;3806;52.270;10.544;2022-08-25T08:18:42;33.90;54.80
7530;DHT22;3806;52.270;10.544;2022-08-25T08:21:17;33.90;54.50
7530;DHT22;3806;52.270;10.544;2022-08-25T08:23:43;34.10;54.30
7530;DHT22;3806;52.270;10.544;2022-08-25T08:26:10;34.30;54.00
7530;DHT22;3806;52.270;10.544;2022-08-25T08:28:36;34.40;53.20
7530;DHT22;3806;52.270;10.544;2022-08-25T08:31:02;34.40;53.10
7530;DHT22;3806;52.270;10.544;2022-08-25T08:33:28;34.30;53.10
7530;DHT22;3806;52.270;10.544;2022-08-25T08:36:10;33.90;53.60
7530;DHT22;3806;52.270;10.544;2022-08-25T08:38:38;33.30;54.50
7530;DHT22;3806;52.270;10.544;2022-08-25T08:52:23;30.40;62.10
7530;DHT22;3806;52.270;10.544;2022-08-25T08:54:57;30.10;63.50
7530;DHT22;3806;52.270;10.544;2022-08-25T08:57:27;29.80;64.70
7530;DHT22;3806;52.270;10.544;2022-08-25T08:59:59;29.50;66.00
7530;DHT22;3806;52.270;10.544;2022-08-25T09:02:45;29.20;67.50
7530;DHT22;3806;52.270;10.544;2022-08-25T09:05:14;28.90;68.60
7530;DHT22;3806;52.270;10.544;2022-08-25T09:07:45;28.70;70.30
7530;DHT22;3806;52.270;10.544;2022-08-25T09:10:14;28.40;71.80
7530;DHT22;3806;52.270;10.544;2022-08-25T09:12:46;28.30;73.70
7530;DHT22;3806;52.270;10.544;2022-08-25T09:18:55;28.00;76.30
7530;DHT22;3806;52.270;10.544;2022-08-25T09:24:38;28.20;76.50
7530;DHT22;3806;52.270;10.544;2022-08-25T09:30:02;28.30;78.60
7530;DHT22;3806;52.270;10.544;2022-08-25T09:32:41;28.90;78.40
7530;DHT22;3806;52.270;10.544;2022-08-25T09:35:21;29.70;74.30
7530;DHT22;3806;52.270;10.544;2022-08-25T09:38:02;30.40;70.80
7530;DHT22;3806;52.270;10.544;2022-08-25T09:40:33;31.00;68.30
7530;DHT22;3806;52.270;10.544;2022-08-25T09:43:01;31.60;65.50
7530;DHT22;3806;52.270;10.544;2022-08-25T09:45:42;31.90;64.30
7530;DHT22;3806;52.270;10.544;2022-08-25T09:48:24;32.40;62.50
7530;DHT22;3806;52.270;10.544;2022-08-25T09:50:52;33.00;59.60
7530;DHT22;3806;52.270;10.544;2022-08-25T09:53:20;33.20;57.50
7530;DHT22;3806;52.270;10.544;2022-08-25T09:55:54;33.10;57.70
7530;DHT22;3806;52.270;10.544;2022-08-25T09:58:25;33.00;57.70
7530;DHT22;3806;52.270;10.544;2022-08-25T10:01:14;32.90;57.20
7530;DHT22;3806;52.270;10.544;2022-08-25T10:04:04;32.80;56.70
7530;DHT22;3806;52.270;10.544;2022-08-25T10:06:35;32.50;57.80
7530;DHT22;3806;52.270;10.544;2022-08-25T10:09:07;32.20;58.90
7530;DHT22;3806;52.270;10.544;2022-08-25T10:11:43;31.80;59.80
7530;DHT22;3806;52.270;10.544;2022-08-25T10:16:44;31.30;61.60
7530;DHT22;3806;52.270;10.544;2022-08-25T10:19:12;31.00;62.40
7530;DHT22;3806;52.270;10.544;2022-08-25T10:21:40;30.80;63.60
7530;DHT22;3806;52.270;10.544;2022-08-25T10:24:08;30.90;64.10
7530;DHT22;3806;52.270;10.544;2022-08-25T10:32:04;30.80;63.50
7530;DHT22;3806;52.270;10.544;2022-08-25T10:34:54;30.70;63.90
7530;DHT22;3806;52.270;10.544;2022-08-25T10:37:24;30.80;63.70
7530;DHT22;3806;52.270;10.544;2022-08-25T10:42:34;30.40;63.90
7530;DHT22;3806;52.270;10.544;2022-08-25T10:45:21;30.20;64.60
7530;DHT22;3806;52.270;10.544;2022-08-25T10:56:17;30.50;62.80
7530;DHT22;3806;52.270;10.544;2022-08-25T11:01:45;30.40;63.50
7530;DHT22;3806;52.270;10.544;2022-08-25T11:04:34;30.50;63.60
7530;DHT22;3806;52.270;10.544;2022-08-25T11:09:50;30.50;62.40
7530;DHT22;3806;52.270;10.544;2022-08-25T11:12:33;30.40;63.10
7530;DHT22;3806;52.270;10.544;2022-08-25T11:15:13;30.30;63.30
7530;DHT22;3806;52.270;10.544;2022-08-25T11:18:07;30.30;62.90
7530;DHT22;3806;52.270;10.544;2022-08-25T11:23:52;30.40;62.90
7530;DHT22;3806;52.270;10.544;2022-08-25T11:26:24;30.50;62.30
7530;DHT22;3806;52.270;10.544;2022-08-25T11:31:42;30.20;62.30
7530;DHT22;3806;52.270;10.544;2022-08-25T11:34:10;29.90;63.20
7530;DHT22;3806;52.270;10.544;2022-08-25T11:36:48;29.80;63.70
7530;DHT22;3806;52.270;10.544;2022-08-25T11:39:16;29.90;64.20
7530;DHT22;3806;52.270;10.544;2022-08-25T11:45:01;30.30;62.40
7530;DHT22;3806;52.270;10.544;2022-08-25T11:50:36;31.00;59.60
7530;DHT22;3806;52.270;10.544;2022-08-25T11:53:27;31.20;59.90
7530;DHT22;3806;52.270;10.544;2022-08-25T11:56:00;31.10;58.80
7530;DHT22;3806;52.270;10.544;2022-08-25T11:58:46;30.90;59.10
7530;DHT22;3806;52.270;10.544;2022-08-25T12:04:14;30.80;59.30
7530;DHT22;3806;52.270;10.544;2022-08-25T12:07:15;30.70;59.60
7530;DHT22;3806;52.270;10.544;2022-08-25T12:15:28;29.90;61.90
7530;DHT22;3806;52.270;10.544;2022-08-25T12:26:07;29.90;62.70
7530;DHT22;3806;52.270;10.544;2022-08-25T12:35:01;29.50;63.00
7530;DHT22;3806;52.270;10.544;2022-08-25T12:37:31;29.50;63.50
7530;DHT22;3806;52.270;10.544;2022-08-25T12:40:03;29.60;63.50
7530;DHT22;3806;52.270;10.544;2022-08-25T12:42:40;29.70;62.80
7530;DHT22;3806;52.270;10.544;2022-08-25T12:47:50;29.80;62.30
7530;DHT22;3806;52.270;10.544;2022-08-25T12:50:42;29.80;62.30
7530;DHT22;3806;52.270;10.544;2022-08-25T12:55:58;30.10;62.30
7530;DHT22;3806;52.270;10.544;2022-08-25T12:58:49;30.00;61.90
7530;DHT22;3806;52.270;10.544;2022-08-25T13:13:03;29.60;62.50
7530;DHT22;3806;52.270;10.544;2022-08-25T13:15:46;29.60;62.80
7530;DHT22;3806;52.270;10.544;2022-08-25T13:18:24;29.70;62.80
7530;DHT22;3806;52.270;10.544;2022-08-25T13:21:12;29.80;61.90
7530;DHT22;3806;52.270;10.544;2022-08-25T13:23:41;29.80;62.10
7530;DHT22;3806;52.270;10.544;2022-08-25T13:26:16;29.90;61.00
7530;DHT22;3806;52.270;10.544;2022-08-25T13:28:54;30.10;60.40
7530;DHT22;3806;52.270;10.544;2022-08-25T13:31:22;30.10;60.50
7530;DHT22;3806;52.270;10.544;2022-08-25T13:34:00;30.00;60.60
7530;DHT22;3806;52.270;10.544;2022-08-25T13:36:30;30.00;60.30
7530;DHT22;3806;52.270;10.544;2022-08-25T13:39:21;30.20;59.80
7530;DHT22;3806;52.270;10.544;2022-08-25T13:41:52;30.20;58.80
7530;DHT22;3806;52.270;10.544;2022-08-25T13:44:22;30.20;59.10
7530;DHT22;3806;52.270;10.544;2022-08-25T13:47:04;30.20;59.30
7530;DHT22;3806;52.270;10.544;2022-08-25T13:49:31;30.10;59.90
7530;DHT22;3806;52.270;10.544;2022-08-25T13:51:57;30.10;60.40
7530;DHT22;3806;52.270;10.544;2022-08-25T13:54:33;30.30;59.90
7530;DHT22;3806;52.270;10.544;2022-08-25T14:00:08;30.40;60.20
7530;DHT22;3806;52.270;10.544;2022-08-25T14:02:48;30.40;59.50
7530;DHT22;3806;52.270;10.544;2022-08-25T14:05:31;30.30;58.90
7530;DHT22;3806;52.270;10.544;2022-08-25T14:07:57;30.10;59.00
7530;DHT22;3806;52.270;10.544;2022-08-25T14:10:39;30.00;59.10
7530;DHT22;3806;52.270;10.544;2022-08-25T14:15:36;29.60;60.60
7530;DHT22;3806;52.270;10.544;2022-08-25T14:18:27;29.60;60.40
7530;DHT22;3806;52.270;10.544;2022-08-25T14:20:55;29.60;60.10
7530;DHT22;3806;52.270;10.544;2022-08-25T14:23:24;29.60;60.40
7530;DHT22;3806;52.270;10.544;2022-08-25T14:25:53;29.60;60.30
7530;DHT22;3806;52.270;10.544;2022-08-25T14:28:22;29.70;60.50
7530;DHT22;3806;52.270;10.544;2022-08-25T14:30:50;29.80;60.30
7530;DHT22;3806;52.270;10.544;2022-08-25T14:33:20;29.90;59.70
7530;DHT22;3806;52.270;10.544;2022-08-25T14:35:48;29.90;59.20
7530;DHT22;3806;52.270;10.544;2022-08-25T14:38:15;29.80;59.50
7530;DHT22;3806;52.270;10.544;2022-08-25T14:40:41;29.80;59.20
7530;DHT22;3806;52.270;10.544;2022-08-25T14:43:07;29.80;59.20
7530;DHT22;3806;52.270;10.544;2022-08-25T14:45:35;29.70;59.70
7530;DHT22;3806;52.270;10.544;2022-08-25T14:48:08;29.60;60.20
7530;DHT22;3806;52.270;10.544;2022-08-25T14:50:35;29.50;60.40
7530;DHT22;3806;52.270;10.544;2022-08-25T14:53:02;29.40;61.20
7530;DHT22;3806;52.270;10.544;2022-08-25T14:55:27;29.50;61.30
7530;DHT22;3806;52.270;10.544;2022-08-25T14:57:53;29.50;61.70
7530;DHT22;3806;52.270;10.544;2022-08-25T15:00:19;29.40;62.00
7530;DHT22;3806;52.270;10.544;2022-08-25T15:02:47;29.40;61.90
7530;DHT22;3806;52.270;10.544;2022-08-25T15:05:16;29.50;61.30
7530;DHT22;3806;52.270;10.544;2022-08-25T15:07:45;29.40;61.60
7530;DHT22;3806;52.270;10.544;2022-08-25T15:10:28;29.30;61.90
7530;DHT22;3806;52.270;10.544;2022-08-25T15:12:54;29.10;62.00
7530;DHT22;3806;52.270;10.544;2022-08-25T15:15:20;29.10;62.10
7530;DHT22;3806;52.270;10.544;2022-08-25T15:17:46;29.10;62.50
7530;DHT22;3806;52.270;10.544;2022-08-25T15:20:12;29.10;61.90
7530;DHT22;3806;52.270;10.544;2022-08-25T15:22:38;29.10;62.10
7530;DHT22;3806;52.270;10.544;2022-08-25T15:25:04;29.10;62.30
7530;DHT22;3806;52.270;10.544;2022-08-25T15:27:30;29.20;61.80
7530;DHT22;3806;52.270;10.544;2022-08-25T15:29:56;29.30;61.60
7530;DHT22;3806;52.270;10.544;2022-08-25T15:32:22;29.30;61.60
7530;DHT22;3806;52.270;10.544;2022-08-25T15:34:49;29.30;61.80
7530;DHT22;3806;52.270;10.544;2022-08-25T15:37:16;29.30;61.40
7530;DHT22;3806;52.270;10.544;2022-08-25T15:39:43;29.40;60.80
7530;DHT22;3806;52.270;10.544;2022-08-25T15:42:09;29.40;60.60
7530;DHT22;3806;52.270;10.544;2022-08-25T15:44:40;29.30;60.50
7530;DHT22;3806;52.270;10.544;2022-08-25T15:47:06;29.30;60.30
7530;DHT22;3806;52.270;10.544;2022-08-25T15:49:32;29.30;59.80
7530;DHT22;3806;52.270;10.544;2022-08-25T15:51:58;29.30;59.80
7530;DHT22;3806;52.270;10.544;2022-08-25T15:54:25;29.30;60.00
7530;DHT22;3806;52.270;10.544;2022-08-25T15:56:51;29.30;60.50
7530;DHT22;3806;52.270;10.544;2022-08-25T15:59:17;29.30;61.00
7530;DHT22;3806;52.270;10.544;2022-08-25T16:01:43;29.30;61.20
7530;DHT22;3806;52.270;10.544;2022-08-25T16:04:09;29.30;61.00
7530;DHT22;3806;52.270;10.544;2022-08-25T16:06:34;29.20;61.10
7530;DHT22;3806;52.270;10.544;2022-08-25T16:09:01;29.10;61.30
7530;DHT22;3806;52.270;10.544;2022-08-25T16:11:28;29.10;61.50
7530;DHT22;3806;52.270;10.544;2022-08-25T16:13:56;29.10;61.70
7530;DHT22;3806;52.270;10.544;2022-08-25T16:16:23;29.10;61.90
7530;DHT22;3806;52.270;10.544;2022-08-25T16:18:50;29.00;62.10
7530;DHT22;3806;52.270;10.544;2022-08-25T16:21:19;29.00;62.10
7530;DHT22;3806;52.270;10.544;2022-08-25T16:23:47;29.00;62.40
7530;DHT22;3806;52.270;10.544;2022-08-25T16:26:13;29.00;62.60
7530;DHT22;3806;52.270;10.544;2022-08-25T16:28:40;29.00;62.50
7530;DHT22;3806;52.270;10.544;2022-08-25T16:31:09;29.00;62.40
7530;DHT22;3806;52.270;10.544;2022-08-25T16:33:35;29.00;62.20
7530;DHT22;3806;52.270;10.544;2022-08-25T16:36:21;28.90;62.20
7530;DHT22;3806;52.270;10.544;2022-08-25T16:38:49;28.90;63.40
7530;DHT22;3806;52.270;10.544;2022-08-25T16:41:18;28.80;63.00
7530;DHT22;3806;52.270;10.544;2022-08-25T16:43:44;28.80;63.30
7530;DHT22;3806;52.270;10.544;2022-08-25T16:46:12;28.70;63.60
7530;DHT22;3806;52.270;10.544;2022-08-25T16:48:38;28.70;63.90
7530;DHT22;3806;52.270;10.544;2022-08-25T16:51:09;28.60;64.10
7530;DHT22;3806;52.270;10.544;2022-08-25T16:53:36;28.70;63.90
7530;DHT22;3806;52.270;10.544;2022-08-25T16:56:20;28.60;64.40
7530;DHT22;3806;52.270;10.544;2022-08-25T16:58:54;28.60;64.20
7530;DHT22;3806;52.270;10.544;2022-08-25T17:01:21;28.50;64.40
7530;DHT22;3806;52.270;10.544;2022-08-25T17:03:49;28.40;64.70
7530;DHT22;3806;52.270;10.544;2022-08-25T17:06:15;28.40;65.10
7530;DHT22;3806;52.270;10.544;2022-08-25T17:08:41;28.40;65.70
7530;DHT22;3806;52.270;10.544;2022-08-25T17:11:10;28.30;66.10
7530;DHT22;3806;52.270;10.544;2022-08-25T17:13:38;28.20;66.40
7530;DHT22;3806;52.270;10.544;2022-08-25T17:16:04;28.20;66.60
7530;DHT22;3806;52.270;10.544;2022-08-25T17:18:31;28.10;67.00
7530;DHT22;3806;52.270;10.544;2022-08-25T17:21:06;28.10;67.30
7530;DHT22;3806;52.270;10.544;2022-08-25T17:23:33;28.10;67.70
7530;DHT22;3806;52.270;10.544;2022-08-25T17:25:59;28.00;67.90
7530;DHT22;3806;52.270;10.544;2022-08-25T17:28:25;27.90;68.20
7530;DHT22;3806;52.270;10.544;2022-08-25T17:30:52;27.90;68.70
7530;DHT22;3806;52.270;10.544;2022-08-25T17:33:18;27.80;69.10
7530;DHT22;3806;52.270;10.544;2022-08-25T17:35:47;27.70;69.30
7530;DHT22;3806;52.270;10.544;2022-08-25T17:38:13;27.70;69.70
7530;DHT22;3806;52.270;10.544;2022-08-25T17:40:40;27.60;69.90
7530;DHT22;3806;52.270;10.544;2022-08-25T17:43:06;27.60;70.20
7530;DHT22;3806;52.270;10.544;2022-08-25T17:45:32;27.60;70.50
7530;DHT22;3806;52.270;10.544;2022-08-25T17:47:57;27.60;70.70
7530;DHT22;3806;52.270;10.544;2022-08-25T17:50:23;27.50;70.90